Palm Beach International Airport
KPBI : now visible

Airfield :











YOU CAN JOIN US ON...

 
LOGIN :

Register | Disclaimer

   EN    FR    IT 

 









Legend :    VFR   Marginal VFR   IFR   Intensive IFR   Very Intensive IFR
Visi :
Ceiling :
>= 8 km
>= 3000ft
5 to 8 km
1000 to 3000 ft
1500m to 5 km
500 to 1000 ft
800 to 1500m
200 to 500 ft
< 800m
< 200 ft
Symbols :   Thunderstorms  Fog  Heavy snow  Heavy precipitations  Wind > 20 kt







- Airport Elevation : 19 ft
- IATA code : PBI


KPBI - Palm Beach International

CURRENT METAR :
  • 151953Z 10009KT 10SM SCT037 SCT044 SCT230 26/17 A2994 RMK AO2 SLP138 T02560172

EXPIRED METARs :
  • 151853Z 09005KT 10SM SCT031 SCT038 SCT230 26/17 A2995 RMK AO2 SLP141 T02560167
  • 151753Z 11006KT 10SM SCT032 SCT046 SCT220 26/17 A2997 RMK AO2 SLP147 T02610172 10267 20172 58021

TAF KPBI
Valid from the 15 at 18:00 until the 16 at 18:00 UTC


151727Z 1518/1618 09008KT P6SM SCT035 SCT050
FM160400 24004KT P6SM SCT250
FM161500 24008KT P6SM SCT035
KZMA FIR / North America



MET'MAP, your aeronautical weather chart ! - Copyright ORBIFLY December 2007 - Disclaimer

ORBIFLY MET'MAP TEAM :

Programming & Development : Alexandra Zaïnal
Concept & Development : Baudouin d'Aumeries
Co-Development & Prog : Marc-Olivier Méhu
Technical & hardware support : Manuel Goepfert

Contact : metmap@orbifly.com




SOURCES & CREDITS :

   NOAA       Earth
Advisory